createdAt,value
2023-04-12T00:00:54.614Z,99801.09
2023-04-12T00:03:22.264Z,99795.75
2023-04-12T00:05:54.660Z,99787.72
2023-04-12T00:08:33.524Z,99790.13
2023-04-12T00:11:02.113Z,99784.94
2023-04-12T00:13:29.827Z,99783.34
2023-04-12T00:15:56.578Z,99785.19
2023-04-12T00:18:25.262Z,99794.56
2023-04-12T00:20:52.566Z,99784.81
2023-04-12T00:23:19.105Z,99793.59
2023-04-12T00:25:45.909Z,99798.94
2023-04-12T00:28:12.648Z,99791.44
2023-04-12T00:30:41.236Z,99784.50
2023-04-12T00:33:08.096Z,99780.72
2023-04-12T00:35:34.945Z,99781.09
2023-04-12T00:38:03.797Z,99783.16
2023-04-12T00:40:30.771Z,99776.25
2023-04-12T00:42:57.781Z,99783.69
2023-04-12T00:45:24.372Z,99791.00
2023-04-12T00:47:51.093Z,99787.97
2023-04-12T00:50:18.155Z,99785.66
2023-04-12T00:52:45.179Z,99789.31
2023-04-12T00:55:11.916Z,99790.41
2023-04-12T00:57:40.130Z,99785.06
2023-04-12T01:00:12.722Z,99792.38
2023-04-12T01:02:42.734Z,99789.56
2023-04-12T01:05:09.699Z,99793.47
2023-04-12T01:08:05.140Z,99787.66
2023-04-12T01:10:57.675Z,99789.72
2023-04-12T01:13:44.969Z,99796.78
2023-04-12T01:16:26.442Z,99784.50
2023-04-12T01:18:59.535Z,99778.56
2023-04-12T01:21:56.896Z,99781.59
2023-04-12T01:24:38.848Z,99782.56
2023-04-12T01:27:13.778Z,99782.94
2023-04-12T01:29:41.538Z,99778.19
2023-04-12T01:32:12.300Z,99776.38
2023-04-12T01:34:40.377Z,99779.88
2023-04-12T01:37:07.541Z,99785.22
2023-04-12T01:39:34.129Z,99772.84
2023-04-12T01:42:00.896Z,99780.28
2023-04-12T01:44:27.541Z,99776.13
2023-04-12T01:46:54.471Z,99791.56
2023-04-12T01:49:24.006Z,99775.88
2023-04-12T01:52:01.816Z,99781.13
2023-04-12T01:54:31.392Z,99782.72
2023-04-12T01:57:01.870Z,99773.59
2023-04-12T01:59:45.498Z,99777.34
2023-04-12T02:02:13.777Z,99771.16
2023-04-12T02:04:42.905Z,99770.44
2023-04-12T02:07:09.642Z,99766.91
2023-04-12T02:09:38.389Z,99758.88
2023-04-12T02:12:06.593Z,99746.13
2023-04-12T02:14:33.432Z,99749.06
2023-04-12T02:17:02.401Z,99740.78
2023-04-12T02:19:29.279Z,99738.59
2023-04-12T02:21:55.897Z,99722.22
2023-04-12T02:24:22.544Z,99722.94
2023-04-12T02:26:51.937Z,99717.09
2023-04-12T02:29:18.539Z,99717.22
2023-04-12T02:31:45.118Z,99722.69
2023-04-12T02:34:13.343Z,99713.97
2023-04-12T02:36:40.005Z,99715.66
2023-04-12T02:39:07.818Z,99707.53
2023-04-12T02:41:34.710Z,99720.00
2023-04-12T02:44:01.680Z,99719.03
2023-04-12T02:46:28.600Z,99732.06
2023-04-12T02:48:55.384Z,99746.72
2023-04-12T02:51:23.077Z,99745.41
2023-04-12T02:53:49.598Z,99759.00
2023-04-12T02:56:19.325Z,99776.00
2023-04-12T02:58:46.377Z,99790.72
2023-04-12T03:01:13.206Z,99786.94
2023-04-12T03:03:40.833Z,99788.25
2023-04-12T03:06:09.342Z,99786.66
2023-04-12T03:08:36.191Z,99789.59
2023-04-12T03:11:02.796Z,99786.53
2023-04-12T03:13:29.363Z,99779.88
2023-04-12T03:15:58.664Z,99774.91
2023-04-12T03:18:25.794Z,99771.41
2023-04-12T03:20:54.857Z,99769.94
2023-04-12T03:23:21.932Z,99765.06
2023-04-12T03:25:48.500Z,99759.13
2023-04-12T03:28:15.073Z,99753.53
2023-04-12T03:30:41.643Z,99754.03
2023-04-12T03:33:08.409Z,99746.75
2023-04-12T03:35:35.102Z,99740.06
2023-04-12T03:38:01.810Z,99744.09
2023-04-12T03:40:28.362Z,99743.94
2023-04-12T03:42:54.918Z,99747.59
2023-04-12T03:45:21.487Z,99746.88
2023-04-12T03:47:48.293Z,99746.88
2023-04-12T03:50:15.066Z,99744.94
2023-04-12T03:52:41.678Z,99751.47
2023-04-12T03:55:08.770Z,99746.50
2023-04-12T03:57:35.944Z,99745.53
2023-04-12T04:00:03.031Z,99749.75
2023-04-12T04:02:31.816Z,99745.16
2023-04-12T04:04:58.691Z,99742.47
2023-04-12T04:07:25.777Z,99752.75
2023-04-12T04:09:54.584Z,99743.03
2023-04-12T04:12:21.154Z,99748.28
2023-04-12T04:14:47.680Z,99730.69
2023-04-12T04:17:14.319Z,99728.69
2023-04-12T04:19:41.670Z,99728.34
2023-04-12T04:22:10.017Z,99725.28
2023-04-12T04:24:39.175Z,99724.66
2023-04-12T04:27:06.465Z,99718.63
2023-04-12T04:29:33.825Z,99720.53
2023-04-12T04:32:01.646Z,99720.78
2023-04-12T04:34:28.625Z,99740.38
2023-04-12T04:36:55.412Z,99736.47
2023-04-12T04:39:21.954Z,99738.44
2023-04-12T04:41:54.530Z,99730.53
2023-04-12T04:44:21.861Z,99725.03
2023-04-12T04:46:49.002Z,99733.94
2023-04-12T04:49:15.777Z,99731.91
2023-04-12T04:51:42.318Z,99738.94
2023-04-12T04:54:08.904Z,99736.88
2023-04-12T04:56:35.465Z,99731.19
2023-04-12T04:59:02.835Z,99734.75
2023-04-12T05:01:29.682Z,99731.25
2023-04-12T05:03:56.386Z,99725.09
2023-04-12T05:06:23.484Z,99736.88
2023-04-12T05:08:50.239Z,99729.97
2023-04-12T05:11:16.848Z,99719.91
2023-04-12T05:13:43.419Z,99717.03
2023-04-12T05:16:11.430Z,99720.53
2023-04-12T05:18:38.272Z,99707.75
2023-04-12T05:21:05.465Z,99714.44
2023-04-12T05:23:43.595Z,99718.81
2023-04-12T05:26:10.558Z,99714.41
2023-04-12T05:28:37.329Z,99717.28
2023-04-12T05:31:05.724Z,99712.03
2023-04-12T05:33:34.475Z,99725.47
2023-04-12T05:36:01.114Z,99731.84
2023-04-12T05:38:27.768Z,99710.97
2023-04-12T05:40:54.449Z,99712.16
2023-04-12T05:43:21.103Z,99718.22
2023-04-12T05:45:47.722Z,99717.38
2023-04-12T05:48:14.652Z,99710.19
2023-04-12T05:50:41.249Z,99720.38
2023-04-12T05:53:08.564Z,99721.41
2023-04-12T05:55:37.745Z,99721.34
2023-04-12T05:58:04.684Z,99723.66
2023-04-12T06:00:31.539Z,99736.72
2023-04-12T06:02:58.692Z,99736.88
2023-04-12T06:05:25.699Z,99740.00
2023-04-12T06:07:52.292Z,99740.88
2023-04-12T06:10:19.046Z,99745.94
2023-04-12T06:12:45.656Z,99755.56
2023-04-12T06:15:12.255Z,99749.66
2023-04-12T06:17:39.126Z,99757.88
2023-04-12T06:20:09.323Z,99749.28
2023-04-12T06:22:36.754Z,99754.56
2023-04-12T06:25:04.017Z,99746.41
2023-04-12T06:27:31.067Z,99751.06
2023-04-12T06:29:58.298Z,99741.63
2023-04-12T06:32:25.232Z,99746.00
2023-04-12T06:34:51.881Z,99739.38
2023-04-12T06:37:18.606Z,99741.94
2023-04-12T06:39:45.326Z,99748.59
2023-04-12T06:42:14.408Z,99743.94
2023-04-12T06:44:41.493Z,99743.09
2023-04-12T06:47:08.384Z,99742.81
2023-04-12T06:49:35.286Z,99743.66
2023-04-12T06:52:01.954Z,99756.25
2023-04-12T06:54:28.637Z,99749.88
2023-04-12T06:56:56.449Z,99744.50
2023-04-12T06:59:23.286Z,99755.94
2023-04-12T07:01:49.882Z,99756.50
2023-04-12T07:04:17.077Z,99751.44
2023-04-12T07:06:43.792Z,99748.31
2023-04-12T07:09:10.386Z,99748.63
2023-04-12T07:11:37.048Z,99750.00
2023-04-12T07:14:03.726Z,99752.97
2023-04-12T07:16:31.640Z,99757.09
2023-04-12T07:18:59.905Z,99755.09
2023-04-12T07:21:27.639Z,99743.78
2023-04-12T07:23:55.010Z,99749.84
2023-04-12T07:26:21.830Z,99742.59
2023-04-12T07:28:48.578Z,99734.69
2023-04-12T07:31:15.545Z,99739.75
2023-04-12T07:33:43.360Z,99735.50
2023-04-12T07:36:12.200Z,99735.75
2023-04-12T07:38:38.879Z,99738.72
2023-04-12T07:41:05.533Z,99730.34
2023-04-12T07:43:32.242Z,99734.16
2023-04-12T07:45:59.564Z,99742.63
2023-04-12T07:48:26.352Z,99741.03
2023-04-12T07:50:52.935Z,99742.25
2023-04-12T07:53:22.289Z,99740.91
2023-04-12T07:55:49.740Z,99743.56
2023-04-12T07:58:17.359Z,99738.09
2023-04-12T08:00:44.613Z,99746.81
2023-04-12T08:03:13.058Z,99735.47
2023-04-12T08:05:40.747Z,99733.59
2023-04-12T08:08:08.443Z,99733.03
2023-04-12T08:10:35.020Z,99740.41
2023-04-12T08:13:01.591Z,99735.50
2023-04-12T08:15:29.193Z,99734.91
2023-04-12T08:17:55.860Z,99744.16
2023-04-12T08:20:22.498Z,99745.13
2023-04-12T08:22:49.689Z,99745.84
2023-04-12T08:25:16.454Z,99748.28
2023-04-12T08:27:43.603Z,99737.19
2023-04-12T08:30:11.687Z,99733.53
2023-04-12T08:32:38.572Z,99741.50
2023-04-12T08:35:06.411Z,99743.59
2023-04-12T08:37:33.856Z,99735.63
2023-04-12T08:40:04.789Z,99729.59
2023-04-12T08:42:32.596Z,99734.50
2023-04-12T08:44:59.388Z,99719.34
2023-04-12T08:47:26.107Z,99718.13
2023-04-12T08:49:52.801Z,99716.31
2023-04-12T08:52:19.634Z,99724.78
2023-04-12T08:54:46.276Z,99711.81
2023-04-12T08:57:13.811Z,99714.03
2023-04-12T08:59:43.717Z,99717.06
2023-04-12T09:02:10.653Z,99707.09
2023-04-12T09:04:48.884Z,99704.53
2023-04-12T09:07:16.126Z,99711.44
2023-04-12T09:09:42.691Z,99708.41
2023-04-12T09:12:09.949Z,99706.69
2023-04-12T09:14:38.125Z,99702.41
2023-04-12T09:17:05.414Z,99710.50
2023-04-12T09:19:34.354Z,99707.78
2023-04-12T09:22:01.803Z,99709.25
2023-04-12T09:24:29.630Z,99709.53
2023-04-12T09:27:02.912Z,99703.72
2023-04-12T09:29:30.392Z,99692.53
2023-04-12T09:32:05.470Z,99687.91
2023-04-12T09:34:33.659Z,99682.38
2023-04-12T09:37:00.239Z,99688.97
2023-04-12T09:39:35.985Z,99687.69
2023-04-12T09:42:25.558Z,99687.59
2023-04-12T09:44:58.680Z,99687.16
2023-04-12T09:47:39.537Z,99670.50
2023-04-12T09:50:10.098Z,99686.47
2023-04-12T09:52:38.498Z,99684.31
2023-04-12T09:55:09.723Z,99687.25
2023-04-12T09:57:40.586Z,99676.19
2023-04-12T10:00:14.240Z,99676.19
2023-04-12T10:02:43.936Z,99665.97
2023-04-12T10:05:14.859Z,99666.63
2023-04-12T10:07:42.441Z,99671.13
2023-04-12T10:10:13.051Z,99687.50
2023-04-12T10:12:41.492Z,99680.94
2023-04-12T10:15:13.394Z,99673.19
2023-04-12T10:17:46.979Z,99661.94
2023-04-12T10:20:17.079Z,99668.06
2023-04-12T10:22:46.835Z,99667.94
2023-04-12T10:25:18.683Z,99662.91
2023-04-12T10:27:46.805Z,99666.88
2023-04-12T10:30:27.655Z,99659.59
2023-04-12T10:33:03.735Z,99658.19
2023-04-12T10:35:49.267Z,99661.16
2023-04-12T10:38:16.323Z,99660.50
2023-04-12T10:41:07.974Z,99649.47
2023-04-12T10:43:34.750Z,99639.09
2023-04-12T10:46:05.223Z,99639.56
2023-04-12T10:48:37.588Z,99630.56
2023-04-12T10:51:28.709Z,99645.94
2023-04-12T10:54:07.344Z,99647.81
2023-04-12T10:56:41.055Z,99646.22
2023-04-12T10:59:09.290Z,99638.25
2023-04-12T11:01:38.655Z,99636.56
2023-04-12T11:04:07.097Z,99642.00
2023-04-12T11:06:52.977Z,99622.59
2023-04-12T11:09:38.750Z,99630.69
2023-04-12T11:12:05.356Z,99637.81
2023-04-12T11:14:34.699Z,99634.94
2023-04-12T11:17:13.579Z,99626.47
2023-04-12T11:19:42.220Z,99622.31
2023-04-12T11:22:14.229Z,99611.06
2023-04-12T11:24:43.783Z,99617.34
2023-04-12T11:27:10.988Z,99621.41
2023-04-12T11:29:37.846Z,99616.84
2023-04-12T11:32:07.261Z,99610.81
2023-04-12T11:34:35.166Z,99611.44
2023-04-12T11:37:08.197Z,99612.94
2023-04-12T11:39:37.011Z,99614.75
2023-04-12T11:42:04.093Z,99598.00
2023-04-12T11:44:47.858Z,99606.41
2023-04-12T11:47:22.317Z,99603.19
2023-04-12T11:49:51.250Z,99603.63
2023-04-12T11:52:20.086Z,99595.28
2023-04-12T11:54:48.524Z,99597.38
2023-04-12T11:57:18.120Z,99593.00
2023-04-12T11:59:49.217Z,99593.91
2023-04-12T12:02:23.594Z,99585.81
2023-04-12T12:04:52.130Z,99580.84
2023-04-12T12:07:21.524Z,99578.22
2023-04-12T12:09:50.162Z,99575.75
2023-04-12T12:12:16.941Z,99576.66
2023-04-12T12:14:47.305Z,99567.88
2023-04-12T12:17:16.238Z,99568.47
2023-04-12T12:19:45.440Z,99568.28
2023-04-12T12:22:12.288Z,99561.38
2023-04-12T12:24:45.979Z,99567.63
2023-04-12T12:27:13.436Z,99563.22
2023-04-12T12:29:40.477Z,99551.03
2023-04-12T12:32:12.025Z,99543.63
2023-04-12T12:34:38.660Z,99537.69
2023-04-12T12:37:08.451Z,99539.81
2023-04-12T12:39:36.364Z,99535.31
2023-04-12T12:42:05.729Z,99539.50
2023-04-12T12:44:36.354Z,99538.16
2023-04-12T12:47:13.542Z,99535.50
2023-04-12T12:49:41.520Z,99527.91
2023-04-12T12:52:08.116Z,99535.28
2023-04-12T12:54:40.294Z,99536.22
2023-04-12T12:57:07.508Z,99532.47
2023-04-12T12:59:34.090Z,99538.88
2023-04-12T13:02:00.785Z,99525.72
2023-04-12T13:04:27.590Z,99530.34
2023-04-12T13:06:54.713Z,99524.44
2023-04-12T13:09:21.251Z,99523.75
2023-04-12T13:11:47.829Z,99526.44
2023-04-12T13:14:14.414Z,99519.28
2023-04-12T13:16:41.224Z,99523.81
2023-04-12T13:19:07.846Z,99516.06
2023-04-12T13:21:34.478Z,99515.66
2023-04-12T13:24:01.066Z,99508.78
2023-04-12T13:26:27.732Z,99499.84
2023-04-12T13:28:55.935Z,99504.09
2023-04-12T13:31:22.763Z,99510.75
2023-04-12T13:33:49.343Z,99506.84
2023-04-12T13:36:16.082Z,99501.78
2023-04-12T13:38:42.631Z,99490.69
2023-04-12T13:41:09.218Z,99485.06
2023-04-12T13:43:35.842Z,99489.38
2023-04-12T13:46:02.483Z,99490.78
2023-04-12T13:48:29.150Z,99488.75
2023-04-12T13:50:56.496Z,99490.91
2023-04-12T13:53:23.109Z,99494.09
2023-04-12T13:55:50.292Z,99481.03
2023-04-12T13:58:18.445Z,99480.41
2023-04-12T14:00:45.014Z,99493.59
2023-04-12T14:03:11.655Z,99485.38
2023-04-12T14:05:38.420Z,99483.28
2023-04-12T14:08:05.020Z,99477.81
2023-04-12T14:10:31.667Z,99470.84
2023-04-12T14:12:58.320Z,99472.47
2023-04-12T14:15:24.917Z,99482.88
2023-04-12T14:17:51.761Z,99473.94
2023-04-12T14:20:19.820Z,99479.03
2023-04-12T14:22:46.439Z,99469.25
2023-04-12T14:25:13.058Z,99470.75
2023-04-12T14:27:39.666Z,99470.56
2023-04-12T14:30:07.382Z,99469.28
2023-04-12T14:32:34.430Z,99474.31
2023-04-12T14:35:01.162Z,99473.00
2023-04-12T14:37:27.789Z,99468.41
2023-04-12T14:39:54.617Z,99474.06
2023-04-12T14:42:21.619Z,99476.59
2023-04-12T14:44:48.205Z,99472.19
2023-04-12T14:47:14.823Z,99476.97
2023-04-12T14:49:41.499Z,99463.94
2023-04-12T14:52:08.108Z,99462.88
2023-04-12T14:54:34.666Z,99465.53
2023-04-12T14:57:01.614Z,99463.31
2023-04-12T14:59:28.304Z,99459.16
2023-04-12T15:01:55.117Z,99454.63
2023-04-12T15:04:21.992Z,99471.94
2023-04-12T15:06:48.709Z,99476.31
2023-04-12T15:09:17.723Z,99464.94
2023-04-12T15:11:46.339Z,99468.47
2023-04-12T15:14:18.062Z,99459.28
2023-04-12T15:16:46.521Z,99457.75
2023-04-12T15:19:19.228Z,99467.28
2023-04-12T15:21:47.174Z,99467.41
2023-04-12T15:24:13.741Z,99467.78
2023-04-12T15:26:40.319Z,99465.63
2023-04-12T15:29:09.342Z,99455.59
2023-04-12T15:31:35.997Z,99454.84
2023-04-12T15:34:02.600Z,99464.63
2023-04-12T15:36:33.651Z,99464.84
2023-04-12T15:39:01.193Z,99467.34
2023-04-12T15:41:33.681Z,99466.38
2023-04-12T15:44:00.370Z,99466.69
2023-04-12T15:46:27.057Z,99474.75
2023-04-12T15:48:53.661Z,99474.22
2023-04-12T15:51:20.287Z,99470.03
2023-04-12T15:53:46.864Z,99469.75
2023-04-12T15:56:15.411Z,99467.56
2023-04-12T15:58:43.210Z,99470.84
2023-04-12T16:01:09.838Z,99474.31
2023-04-12T16:03:37.241Z,99481.81
2023-04-12T16:06:05.126Z,99475.41
2023-04-12T16:08:31.865Z,99479.06
2023-04-12T16:10:58.807Z,99473.19
2023-04-12T16:13:25.450Z,99476.59
2023-04-12T16:15:52.415Z,99472.94
2023-04-12T16:18:19.005Z,99464.59
2023-04-12T16:20:45.643Z,99463.56
2023-04-12T16:23:12.900Z,99465.88
2023-04-12T16:25:40.345Z,99466.66
2023-04-12T16:28:07.828Z,99464.91
2023-04-12T16:30:35.137Z,99460.50
2023-04-12T16:33:02.090Z,99460.47
2023-04-12T16:35:28.803Z,99463.50
2023-04-12T16:37:55.493Z,99460.97
2023-04-12T16:40:22.119Z,99462.94
2023-04-12T16:42:48.694Z,99457.69
2023-04-12T16:45:15.500Z,99461.84
2023-04-12T16:47:42.437Z,99456.69
2023-04-12T16:50:09.630Z,99456.56
2023-04-12T16:52:36.883Z,99469.34
2023-04-12T16:55:04.159Z,99463.25
2023-04-12T16:57:31.173Z,99463.22
2023-04-12T16:59:57.839Z,99466.13
2023-04-12T17:02:25.166Z,99470.44
2023-04-12T17:04:52.092Z,99464.00
2023-04-12T17:07:19.933Z,99460.16
2023-04-12T17:09:46.581Z,99463.41
2023-04-12T17:12:13.285Z,99456.84
2023-04-12T17:14:39.940Z,99458.56
2023-04-12T17:17:07.030Z,99460.22
2023-04-12T17:19:33.961Z,99462.06
2023-04-12T17:22:00.762Z,99458.81
2023-04-12T17:24:28.655Z,99466.78
2023-04-12T17:26:55.345Z,99467.38
2023-04-12T17:29:22.543Z,99469.88
2023-04-12T17:31:51.808Z,99467.59
2023-04-12T17:34:20.929Z,99460.31
2023-04-12T17:36:49.184Z,99460.63
2023-04-12T17:39:16.270Z,99457.44
2023-04-12T17:41:42.997Z,99462.16
2023-04-12T17:44:09.605Z,99454.03
2023-04-12T17:46:36.272Z,99465.91
2023-04-12T17:49:05.808Z,99470.50
2023-04-12T17:51:33.335Z,99468.34
2023-04-12T17:54:00.893Z,99469.25
2023-04-12T17:56:28.134Z,99476.41
2023-04-12T17:58:55.229Z,99462.81
2023-04-12T18:01:22.345Z,99469.06
2023-04-12T18:03:49.466Z,99475.09
2023-04-12T18:06:18.378Z,99480.22
2023-04-12T18:08:45.245Z,99477.78
2023-04-12T18:11:13.141Z,99479.00
2023-04-12T18:13:39.744Z,99479.69
2023-04-12T18:16:07.171Z,99482.88
2023-04-12T18:18:33.979Z,99474.09
2023-04-12T18:21:03.795Z,99470.41
2023-04-12T18:23:30.546Z,99470.88
2023-04-12T18:25:57.239Z,99472.91
2023-04-12T18:28:24.895Z,99474.03
2023-04-12T18:30:51.456Z,99475.38
2023-04-12T18:33:18.058Z,99479.53
2023-04-12T18:35:44.899Z,99480.81
2023-04-12T18:38:13.501Z,99485.81
2023-04-12T18:40:40.128Z,99484.88
2023-04-12T18:43:08.082Z,99480.28
2023-04-12T18:45:39.737Z,99485.16
2023-04-12T18:48:06.606Z,99492.16
2023-04-12T18:50:33.188Z,99490.94
2023-04-12T18:52:59.737Z,99496.13
2023-04-12T18:55:26.365Z,99495.72
2023-04-12T18:57:52.922Z,99499.34
2023-04-12T19:00:19.781Z,99503.19
2023-04-12T19:02:46.374Z,99501.22
2023-04-12T19:05:14.828Z,99503.06
2023-04-12T19:07:41.911Z,99513.13
2023-04-12T19:10:09.214Z,99510.41
2023-04-12T19:12:36.035Z,99503.75
2023-04-12T19:15:02.623Z,99505.28
2023-04-12T19:17:29.331Z,99509.09
2023-04-12T19:19:56.811Z,99505.88
2023-04-12T19:22:27.442Z,99511.00
2023-04-12T19:24:54.043Z,99505.69
2023-04-12T19:27:22.954Z,99509.03
2023-04-12T19:29:51.551Z,99506.47
2023-04-12T19:32:19.169Z,99509.16
2023-04-12T19:34:46.973Z,99511.56
2023-04-12T19:37:14.049Z,99505.53
2023-04-12T19:39:41.198Z,99514.03
2023-04-12T19:42:07.907Z,99508.44
2023-04-12T19:44:34.602Z,99507.72
2023-04-12T19:47:01.625Z,99503.63
2023-04-12T19:49:28.899Z,99511.13
2023-04-12T19:51:55.533Z,99504.91
2023-04-12T19:54:25.735Z,99502.25
2023-04-12T19:56:53.404Z,99495.47
2023-04-12T19:59:21.064Z,99498.72
2023-04-12T20:01:48.220Z,99486.31
2023-04-12T20:04:16.486Z,99488.44
2023-04-12T20:06:43.911Z,99487.31
2023-04-12T20:09:13.218Z,99494.78
2023-04-12T20:11:41.597Z,99492.09
2023-04-12T20:14:08.298Z,99499.31
2023-04-12T20:16:38.582Z,99496.34
2023-04-12T20:19:05.379Z,99488.34
2023-04-12T20:21:34.181Z,99478.31
2023-04-12T20:24:04.149Z,99481.84
2023-04-12T20:26:34.223Z,99476.50
2023-04-12T20:29:01.293Z,99477.06
2023-04-12T20:31:28.541Z,99477.88
2023-04-12T20:33:56.993Z,99486.66
2023-04-12T20:36:26.424Z,99494.28
2023-04-12T20:38:53.823Z,99494.41
2023-04-12T20:41:20.441Z,99487.34
2023-04-12T20:43:48.116Z,99486.38
2023-04-12T20:46:17.148Z,99485.09
2023-04-12T20:48:45.099Z,99475.06
2023-04-12T20:51:13.669Z,99476.31
2023-04-12T20:53:40.980Z,99478.72
2023-04-12T20:56:08.289Z,99474.75
2023-04-12T20:58:35.221Z,99473.03
2023-04-12T21:01:04.982Z,99474.16
2023-04-12T21:03:32.560Z,99465.97
2023-04-12T21:06:02.566Z,99464.09
2023-04-12T21:08:30.913Z,99471.94
2023-04-12T21:10:58.792Z,99465.03
2023-04-12T21:13:26.437Z,99465.28
2023-04-12T21:15:53.896Z,99462.75
2023-04-12T21:18:21.054Z,99468.50
2023-04-12T21:20:48.653Z,99465.97
2023-04-12T21:23:20.736Z,99471.44
2023-04-12T21:25:48.459Z,99475.38
2023-04-12T21:28:15.264Z,99468.88
2023-04-12T21:30:44.771Z,99471.94
2023-04-12T21:33:16.498Z,99468.81
2023-04-12T21:35:43.142Z,99465.84
2023-04-12T21:38:09.679Z,99459.91
2023-04-12T21:40:36.821Z,99468.47
2023-04-12T21:43:03.373Z,99457.03
2023-04-12T21:45:30.012Z,99454.41
2023-04-12T21:47:56.863Z,99453.94
2023-04-12T21:50:23.570Z,99447.19
2023-04-12T21:52:50.143Z,99439.94
2023-04-12T21:55:16.807Z,99434.59
2023-04-12T21:57:43.415Z,99437.09
2023-04-12T22:00:10.640Z,99436.34
2023-04-12T22:02:37.425Z,99431.16
2023-04-12T22:05:04.424Z,99432.97
2023-04-12T22:07:30.978Z,99428.72
2023-04-12T22:09:59.652Z,99429.19
2023-04-12T22:12:26.250Z,99426.13
2023-04-12T22:14:52.925Z,99425.28
2023-04-12T22:17:21.379Z,99426.53
2023-04-12T22:19:48.255Z,99426.66
2023-04-12T22:22:15.588Z,99429.06
2023-04-12T22:24:42.641Z,99423.44
2023-04-12T22:27:09.377Z,99425.53
2023-04-12T22:29:37.759Z,99423.72
2023-04-12T22:32:04.673Z,99424.44
2023-04-12T22:34:32.445Z,99420.19
2023-04-12T22:37:02.858Z,99422.03
2023-04-12T22:39:31.651Z,99411.03
2023-04-12T22:41:58.874Z,99416.59
2023-04-12T22:44:26.953Z,99412.88
2023-04-12T22:46:56.668Z,99412.66
2023-04-12T22:49:28.081Z,99409.47
2023-04-12T22:51:55.785Z,99415.66
2023-04-12T22:54:23.578Z,99419.88
2023-04-12T22:56:50.695Z,99418.63
2023-04-12T22:59:18.827Z,99414.75
2023-04-12T23:01:47.158Z,99411.66
2023-04-12T23:04:14.808Z,99409.00
2023-04-12T23:06:43.116Z,99401.72
2023-04-12T23:09:11.118Z,99412.25
2023-04-12T23:11:39.846Z,99413.56
2023-04-12T23:14:08.023Z,99420.47
2023-04-12T23:16:35.462Z,99416.28
2023-04-12T23:19:03.999Z,99408.97
2023-04-12T23:21:30.791Z,99406.09
2023-04-12T23:23:57.536Z,99406.09
2023-04-12T23:26:24.674Z,99407.66
2023-04-12T23:28:51.653Z,99400.91
2023-04-12T23:31:18.479Z,99396.03
2023-04-12T23:33:46.081Z,99389.84
2023-04-12T23:36:13.044Z,99391.97
2023-04-12T23:38:40.719Z,99386.34
2023-04-12T23:41:10.074Z,99396.25
2023-04-12T23:43:37.101Z,99385.16
2023-04-12T23:46:04.518Z,99383.03
2023-04-12T23:48:32.363Z,99381.06
2023-04-12T23:50:59.353Z,99377.44
2023-04-12T23:53:25.979Z,99376.59
2023-04-12T23:55:53.613Z,99367.56
2023-04-12T23:58:21.087Z,99376.44
